ADDS METAR Data INFO
IDs: Format: Raw Decoded Include TAF

Data at: 0711 UTC 19 Oct 2017

KROW 190651Z AUTO 20006KT 10SM CLR 14/10 A3005 RMK AO2 SLP124 T01440100 402940083
KROW 190551Z AUTO 24006KT 10SM CLR 17/10 A3005 RMK AO2 SLP125 T01670100 10261 20161 51005
KROW 190451Z AUTO 18008KT 10SM CLR 18/10 A3005 RMK AO2 SLP128 T01830100
KROW 190351Z AUTO 18009KT 10SM CLR 18/09 A3005 RMK AO2 SLP131 T01780094
KROW 190251Z AUTO 23003KT 10SM CLR 19/09 A3004 RMK AO2 SLP131 T01890094 53008
KROW 190151Z 18003KT 10SM CLR 19/10 A3003 RMK AO2 SLP132 T01890100
KROW 190051Z 18006KT 10SM CLR 22/09 A3002 RMK AO2 SLP124 T02170094
KROW 182351Z 15005KT 10SM CLR 26/08 A3001 RMK AO2 SLP116 T02610078 10294 20228 56008
KROW 182251Z 16008KT 10SM CLR 29/04 A3002 RMK AO2 SLP112 T02940039
KROW 182151Z 15008KT 10SM CLR 29/07 A3003 RMK AO2 SLP118 T02940072
KROW 182051Z 12007KT 10SM CLR 28/10 A3004 RMK AO2 SLP121 T02830100 56020
KROW 181951Z 15009KT 10SM CLR 26/10 A3006 RMK AO2 SLP132 T02610100
KROW 181851Z 14006KT 10SM CLR 24/10 A3009 RMK AO2 SLP142 T02390100
KROW 181751Z 06004KT 10SM CLR 23/10 A3011 RMK AO2 SLP147 T02280100 10228 20083 58007
KROW 181651Z 15004KT 10SM CLR 19/08 A3012 RMK AO2 SLP154 T01940083
KROW 181551Z 00000KT 10SM CLR 16/08 A3013 RMK AO2 SLP160 T01560083
KROW 181451Z 00000KT 10SM CLR 12/08 A3013 RMK AO2 SLP164 T01220078 53012
KROW 181351Z 03005KT 10SM CLR 09/07 A3011 RMK AO2 SLP160 T00890067
KROW 181251Z 01004KT 10SM CLR 09/06 A3010 RMK AO2 SLP153 T00890061
KROW 181151Z 04003KT 10SM CLR 09/06 A3009 RMK AO2 SLP144 T00940061 10139 20083 55001
KROW 181051Z AUTO 26005KT 10SM CLR 11/06 A3008 RMK AO2 SLP138 T01060061
KROW 180951Z AUTO 22004KT 10SM CLR 09/06 A3008 RMK AO2 SLP138 T00890061
KROW 180851Z AUTO 24004KT 10SM CLR 10/06 A3010 RMK AO2 SLP143 T01000061 56007
KROW 180751Z AUTO 25004KT 10SM CLR 09/07 A3010 RMK AO2 SLP147 T00940067
KROW 180651Z AUTO 23004KT 10SM CLR 12/08 A3011 RMK AO2 SLP151 T01170078 402720039
KROW 180551Z AUTO 00000KT 10SM CLR 13/08 A3012 RMK AO2 SLP155 T01330083 10244 20128 58001
KROW 180451Z AUTO 19006KT 10SM CLR 15/08 A3013 RMK AO2 SLP162 T01500083
KROW 180351Z AUTO 18010KT 10SM CLR 17/08 A3013 RMK AO2 SLP164 T01670083
KROW 180251Z AUTO 19010KT 10SM CLR 18/08 A3012 RMK AO2 SLP164 T01780078 53006
KROW 180151Z 17008KT 10SM CLR 19/06 A3012 RMK AO2 SLP164 T01890061
KROW 180051Z 16005KT 10SM CLR 20/05 A3010 RMK AO2 SLP160 T02000050
KROW 172351Z 17005KT 10SM CLR 25/04 A3010 RMK AO2 SLP152 T02500039 10272 20194 56011
KROW 172251Z 18008KT 10SM CLR 27/02 A3011 RMK AO2 SLP154 T02670022
KROW 172151Z 17011KT 10SM CLR 27/01 A3012 RMK AO2 SLP156 T02720011
KROW 172051Z AUTO 16009KT 10SM CLR 27/02 A3014 RMK AO2 SLP160 T02670022 58034
KROW 171951Z 16006KT 10SM CLR 25/05 A3017 RMK AO2 SLP177 T02500050